<?xml version="1.0" encoding="UTF-8" standalone="no" ?>
<gpx xmlns="http://www.topografix.com/GPX/1/1" xmlns:xsi="http://www.w3.org/2001/XMLSchema-instance" xsi:schemaLocation="http://www.topografix.com/GPX/1/1 http://www.topografix.com/GPX/1/1/gpx.xsd" version="1.1" creator="VisuGPX - https://www.visugpx.com">
  <metadata>
    <name>Course à pied dans l'après-midi</name>
  </metadata>
  <trk>
    <name><![CDATA[Course à pied dans l'après-midi_1]]></name>
    <trkseg>
      <trkpt lat="48.71138" lon="7.16273">
        <ele>317.2</ele>
        <time>2023-11-12T16:10:43Z</time>
      </trkpt>
      <trkpt lat="48.71124" lon="7.16254">
        <ele>317.7</ele>
        <time>2023-11-12T16:10:50Z</time>
      </trkpt>
      <trkpt lat="48.7111" lon="7.16231">
        <ele>318</ele>
        <time>2023-11-12T16:10:57Z</time>
      </trkpt>
      <trkpt lat="48.71094" lon="7.1621">
        <ele>318.2</ele>
        <time>2023-11-12T16:11:04Z</time>
      </trkpt>
      <trkpt lat="48.71079" lon="7.16191">
        <ele>318.4</ele>
        <time>2023-11-12T16:11:11Z</time>
      </trkpt>
      <trkpt lat="48.71061" lon="7.1618">
        <ele>318.5</ele>
        <time>2023-11-12T16:11:18Z</time>
      </trkpt>
      <trkpt lat="48.71044" lon="7.16166">
        <ele>318.1</ele>
        <time>2023-11-12T16:11:24Z</time>
      </trkpt>
      <trkpt lat="48.7103" lon="7.16145">
        <ele>317.3</ele>
        <time>2023-11-12T16:11:30Z</time>
      </trkpt>
      <trkpt lat="48.71017" lon="7.16123">
        <ele>316.9</ele>
        <time>2023-11-12T16:11:36Z</time>
      </trkpt>
      <trkpt lat="48.71006" lon="7.16101">
        <ele>316.7</ele>
        <time>2023-11-12T16:11:42Z</time>
      </trkpt>
      <trkpt lat="48.70994" lon="7.16079">
        <ele>316.6</ele>
        <time>2023-11-12T16:11:48Z</time>
      </trkpt>
      <trkpt lat="48.70981" lon="7.16055">
        <ele>316.9</ele>
        <time>2023-11-12T16:11:55Z</time>
      </trkpt>
      <trkpt lat="48.70971" lon="7.16032">
        <ele>317.6</ele>
        <time>2023-11-12T16:12:01Z</time>
      </trkpt>
      <trkpt lat="48.70959" lon="7.16008">
        <ele>318.7</ele>
        <time>2023-11-12T16:12:08Z</time>
      </trkpt>
      <trkpt lat="48.70951" lon="7.15981">
        <ele>320.4</ele>
        <time>2023-11-12T16:12:15Z</time>
      </trkpt>
      <trkpt lat="48.70947" lon="7.15953">
        <ele>322.2</ele>
        <time>2023-11-12T16:12:22Z</time>
      </trkpt>
      <trkpt lat="48.70947" lon="7.15924">
        <ele>323.9</ele>
        <time>2023-11-12T16:12:30Z</time>
      </trkpt>
      <trkpt lat="48.70948" lon="7.15896">
        <ele>325.6</ele>
        <time>2023-11-12T16:12:37Z</time>
      </trkpt>
      <trkpt lat="48.70951" lon="7.15866">
        <ele>327.2</ele>
        <time>2023-11-12T16:12:44Z</time>
      </trkpt>
      <trkpt lat="48.70954" lon="7.15838">
        <ele>328.8</ele>
        <time>2023-11-12T16:12:51Z</time>
      </trkpt>
      <trkpt lat="48.70956" lon="7.15809">
        <ele>330.7</ele>
        <time>2023-11-12T16:12:59Z</time>
      </trkpt>
      <trkpt lat="48.70956" lon="7.15779">
        <ele>333</ele>
        <time>2023-11-12T16:13:07Z</time>
      </trkpt>
      <trkpt lat="48.70957" lon="7.15749">
        <ele>335.5</ele>
        <time>2023-11-12T16:13:15Z</time>
      </trkpt>
      <trkpt lat="48.70956" lon="7.15721">
        <ele>337.8</ele>
        <time>2023-11-12T16:13:23Z</time>
      </trkpt>
      <trkpt lat="48.70949" lon="7.15695">
        <ele>340.3</ele>
        <time>2023-11-12T16:13:31Z</time>
      </trkpt>
      <trkpt lat="48.70932" lon="7.15684">
        <ele>341.4</ele>
        <time>2023-11-12T16:13:38Z</time>
      </trkpt>
      <trkpt lat="48.70914" lon="7.15669">
        <ele>342.9</ele>
        <time>2023-11-12T16:13:46Z</time>
      </trkpt>
      <trkpt lat="48.70899" lon="7.15653">
        <ele>344</ele>
        <time>2023-11-12T16:13:54Z</time>
      </trkpt>
      <trkpt lat="48.70884" lon="7.15637">
        <ele>345</ele>
        <time>2023-11-12T16:14:03Z</time>
      </trkpt>
      <trkpt lat="48.70865" lon="7.15629">
        <ele>345.8</ele>
        <time>2023-11-12T16:14:10Z</time>
      </trkpt>
      <trkpt lat="48.70848" lon="7.1562">
        <ele>346.5</ele>
        <time>2023-11-12T16:14:16Z</time>
      </trkpt>
      <trkpt lat="48.70832" lon="7.15605">
        <ele>347.1</ele>
        <time>2023-11-12T16:14:22Z</time>
      </trkpt>
      <trkpt lat="48.70818" lon="7.15589">
        <ele>347.7</ele>
        <time>2023-11-12T16:14:28Z</time>
      </trkpt>
      <trkpt lat="48.70803" lon="7.15572">
        <ele>348.3</ele>
        <time>2023-11-12T16:14:34Z</time>
      </trkpt>
      <trkpt lat="48.70787" lon="7.15557">
        <ele>349.1</ele>
        <time>2023-11-12T16:14:40Z</time>
      </trkpt>
      <trkpt lat="48.70771" lon="7.15538">
        <ele>349.8</ele>
        <time>2023-11-12T16:14:47Z</time>
      </trkpt>
      <trkpt lat="48.70755" lon="7.15519">
        <ele>350.7</ele>
        <time>2023-11-12T16:14:54Z</time>
      </trkpt>
      <trkpt lat="48.70738" lon="7.15502">
        <ele>351.5</ele>
        <time>2023-11-12T16:15:01Z</time>
      </trkpt>
      <trkpt lat="48.70721" lon="7.15484">
        <ele>352.3</ele>
        <time>2023-11-12T16:15:08Z</time>
      </trkpt>
      <trkpt lat="48.70702" lon="7.15471">
        <ele>353.5</ele>
        <time>2023-11-12T16:15:15Z</time>
      </trkpt>
      <trkpt lat="48.70685" lon="7.1546">
        <ele>354.5</ele>
        <time>2023-11-12T16:15:22Z</time>
      </trkpt>
      <trkpt lat="48.70666" lon="7.1545">
        <ele>355.2</ele>
        <time>2023-11-12T16:15:29Z</time>
      </trkpt>
      <trkpt lat="48.70648" lon="7.15442">
        <ele>355.6</ele>
        <time>2023-11-12T16:15:35Z</time>
      </trkpt>
      <trkpt lat="48.70628" lon="7.15433">
        <ele>355.8</ele>
        <time>2023-11-12T16:15:42Z</time>
      </trkpt>
      <trkpt lat="48.70609" lon="7.15424">
        <ele>356.2</ele>
        <time>2023-11-12T16:15:49Z</time>
      </trkpt>
      <trkpt lat="48.70589" lon="7.15414">
        <ele>356.6</ele>
        <time>2023-11-12T16:15:56Z</time>
      </trkpt>
      <trkpt lat="48.70569" lon="7.15402">
        <ele>356.7</ele>
        <time>2023-11-12T16:16:03Z</time>
      </trkpt>
      <trkpt lat="48.7055" lon="7.15392">
        <ele>357</ele>
        <time>2023-11-12T16:16:10Z</time>
      </trkpt>
      <trkpt lat="48.70533" lon="7.15382">
        <ele>357.3</ele>
        <time>2023-11-12T16:16:16Z</time>
      </trkpt>
      <trkpt lat="48.70515" lon="7.15367">
        <ele>357.6</ele>
        <time>2023-11-12T16:16:23Z</time>
      </trkpt>
      <trkpt lat="48.70499" lon="7.15351">
        <ele>358</ele>
        <time>2023-11-12T16:16:29Z</time>
      </trkpt>
      <trkpt lat="48.70482" lon="7.15337">
        <ele>358.5</ele>
        <time>2023-11-12T16:16:35Z</time>
      </trkpt>
      <trkpt lat="48.70467" lon="7.15322">
        <ele>358.7</ele>
        <time>2023-11-12T16:16:41Z</time>
      </trkpt>
      <trkpt lat="48.7045" lon="7.15309">
        <ele>358.8</ele>
        <time>2023-11-12T16:16:47Z</time>
      </trkpt>
      <trkpt lat="48.70433" lon="7.153">
        <ele>359</ele>
        <time>2023-11-12T16:16:53Z</time>
      </trkpt>
      <trkpt lat="48.70413" lon="7.15293">
        <ele>359.1</ele>
        <time>2023-11-12T16:17:00Z</time>
      </trkpt>
      <trkpt lat="48.70393" lon="7.15284">
        <ele>359</ele>
        <time>2023-11-12T16:17:07Z</time>
      </trkpt>
      <trkpt lat="48.70373" lon="7.15275">
        <ele>359.1</ele>
        <time>2023-11-12T16:17:14Z</time>
      </trkpt>
      <trkpt lat="48.70356" lon="7.15266">
        <ele>359.3</ele>
        <time>2023-11-12T16:17:20Z</time>
      </trkpt>
      <trkpt lat="48.70341" lon="7.15249">
        <ele>359.6</ele>
        <time>2023-11-12T16:17:27Z</time>
      </trkpt>
      <trkpt lat="48.70353" lon="7.15228">
        <ele>359.7</ele>
        <time>2023-11-12T16:17:33Z</time>
      </trkpt>
      <trkpt lat="48.7036" lon="7.15212">
        <ele>359.7</ele>
        <time>2023-11-12T16:17:38Z</time>
      </trkpt>
      <trkpt lat="48.70376" lon="7.15199">
        <ele>359.6</ele>
        <time>2023-11-12T16:17:44Z</time>
      </trkpt>
      <trkpt lat="48.7039" lon="7.1518">
        <ele>359.7</ele>
        <time>2023-11-12T16:17:50Z</time>
      </trkpt>
      <trkpt lat="48.70404" lon="7.15159">
        <ele>360.1</ele>
        <time>2023-11-12T16:17:56Z</time>
      </trkpt>
      <trkpt lat="48.70419" lon="7.1514">
        <ele>360.2</ele>
        <time>2023-11-12T16:18:02Z</time>
      </trkpt>
      <trkpt lat="48.70433" lon="7.15121">
        <ele>360.2</ele>
        <time>2023-11-12T16:18:08Z</time>
      </trkpt>
      <trkpt lat="48.70447" lon="7.151">
        <ele>360.2</ele>
        <time>2023-11-12T16:18:14Z</time>
      </trkpt>
      <trkpt lat="48.70461" lon="7.15081">
        <ele>360.3</ele>
        <time>2023-11-12T16:18:20Z</time>
      </trkpt>
      <trkpt lat="48.7047" lon="7.15058">
        <ele>360.5</ele>
        <time>2023-11-12T16:18:27Z</time>
      </trkpt>
      <trkpt lat="48.70469" lon="7.15049">
        <ele>360.4</ele>
        <time>2023-11-12T16:18:28Z</time>
      </trkpt>
      <trkpt lat="48.70456" lon="7.15028">
        <ele>359.8</ele>
        <time>2023-11-12T16:18:35Z</time>
      </trkpt>
      <trkpt lat="48.70441" lon="7.15009">
        <ele>359.4</ele>
        <time>2023-11-12T16:18:41Z</time>
      </trkpt>
      <trkpt lat="48.70425" lon="7.14993">
        <ele>359.4</ele>
        <time>2023-11-12T16:18:47Z</time>
      </trkpt>
      <trkpt lat="48.70408" lon="7.14973">
        <ele>359.1</ele>
        <time>2023-11-12T16:18:54Z</time>
      </trkpt>
      <trkpt lat="48.70395" lon="7.14952">
        <ele>358.5</ele>
        <time>2023-11-12T16:19:00Z</time>
      </trkpt>
      <trkpt lat="48.70382" lon="7.14932">
        <ele>357.5</ele>
        <time>2023-11-12T16:19:06Z</time>
      </trkpt>
      <trkpt lat="48.70368" lon="7.1491">
        <ele>356.1</ele>
        <time>2023-11-12T16:19:12Z</time>
      </trkpt>
      <trkpt lat="48.70358" lon="7.14885">
        <ele>355.2</ele>
        <time>2023-11-12T16:19:19Z</time>
      </trkpt>
      <trkpt lat="48.70344" lon="7.14863">
        <ele>354.3</ele>
        <time>2023-11-12T16:19:26Z</time>
      </trkpt>
      <trkpt lat="48.7033" lon="7.14844">
        <ele>353.4</ele>
        <time>2023-11-12T16:19:32Z</time>
      </trkpt>
      <trkpt lat="48.70317" lon="7.14823">
        <ele>352.6</ele>
        <time>2023-11-12T16:19:38Z</time>
      </trkpt>
      <trkpt lat="48.70303" lon="7.14799">
        <ele>351.9</ele>
        <time>2023-11-12T16:19:44Z</time>
      </trkpt>
      <trkpt lat="48.7029" lon="7.14779">
        <ele>350.8</ele>
        <time>2023-11-12T16:19:50Z</time>
      </trkpt>
      <trkpt lat="48.70276" lon="7.14761">
        <ele>349.7</ele>
        <time>2023-11-12T16:19:56Z</time>
      </trkpt>
      <trkpt lat="48.70263" lon="7.14738">
        <ele>348.6</ele>
        <time>2023-11-12T16:20:02Z</time>
      </trkpt>
      <trkpt lat="48.70252" lon="7.14713">
        <ele>347.6</ele>
        <time>2023-11-12T16:20:08Z</time>
      </trkpt>
      <trkpt lat="48.70243" lon="7.14688">
        <ele>346.9</ele>
        <time>2023-11-12T16:20:13Z</time>
      </trkpt>
      <trkpt lat="48.70232" lon="7.14665">
        <ele>346.1</ele>
        <time>2023-11-12T16:20:19Z</time>
      </trkpt>
      <trkpt lat="48.70217" lon="7.14645">
        <ele>345.2</ele>
        <time>2023-11-12T16:20:26Z</time>
      </trkpt>
      <trkpt lat="48.70204" lon="7.14627">
        <ele>344.6</ele>
        <time>2023-11-12T16:20:32Z</time>
      </trkpt>
      <trkpt lat="48.70191" lon="7.14603">
        <ele>344.1</ele>
        <time>2023-11-12T16:20:37Z</time>
      </trkpt>
      <trkpt lat="48.70185" lon="7.14592">
        <ele>344</ele>
        <time>2023-11-12T16:20:41Z</time>
      </trkpt>
      <trkpt lat="48.7017" lon="7.14609">
        <ele>343.8</ele>
        <time>2023-11-12T16:20:48Z</time>
      </trkpt>
      <trkpt lat="48.70156" lon="7.14632">
        <ele>343.6</ele>
        <time>2023-11-12T16:20:54Z</time>
      </trkpt>
      <trkpt lat="48.70142" lon="7.14653">
        <ele>343.8</ele>
        <time>2023-11-12T16:21:00Z</time>
      </trkpt>
      <trkpt lat="48.70128" lon="7.14671">
        <ele>344.2</ele>
        <time>2023-11-12T16:21:06Z</time>
      </trkpt>
      <trkpt lat="48.70115" lon="7.14691">
        <ele>344.4</ele>
        <time>2023-11-12T16:21:12Z</time>
      </trkpt>
      <trkpt lat="48.70101" lon="7.14711">
        <ele>344.6</ele>
        <time>2023-11-12T16:21:19Z</time>
      </trkpt>
      <trkpt lat="48.70088" lon="7.1473">
        <ele>345.2</ele>
        <time>2023-11-12T16:21:26Z</time>
      </trkpt>
      <trkpt lat="48.70074" lon="7.14748">
        <ele>346.2</ele>
        <time>2023-11-12T16:21:33Z</time>
      </trkpt>
      <trkpt lat="48.70062" lon="7.1477">
        <ele>347.7</ele>
        <time>2023-11-12T16:21:40Z</time>
      </trkpt>
      <trkpt lat="48.70049" lon="7.14793">
        <ele>348.9</ele>
        <time>2023-11-12T16:21:46Z</time>
      </trkpt>
      <trkpt lat="48.70033" lon="7.14812">
        <ele>350.1</ele>
        <time>2023-11-12T16:21:52Z</time>
      </trkpt>
      <trkpt lat="48.70017" lon="7.14828">
        <ele>351.3</ele>
        <time>2023-11-12T16:21:58Z</time>
      </trkpt>
      <trkpt lat="48.70001" lon="7.14846">
        <ele>352.6</ele>
        <time>2023-11-12T16:22:05Z</time>
      </trkpt>
      <trkpt lat="48.69987" lon="7.14863">
        <ele>353.5</ele>
        <time>2023-11-12T16:22:12Z</time>
      </trkpt>
      <trkpt lat="48.69982" lon="7.14861">
        <ele>353.5</ele>
        <time>2023-11-12T16:22:14Z</time>
      </trkpt>
      <trkpt lat="48.69968" lon="7.14838">
        <ele>353.3</ele>
        <time>2023-11-12T16:22:20Z</time>
      </trkpt>
      <trkpt lat="48.69954" lon="7.14819">
        <ele>353</ele>
        <time>2023-11-12T16:22:26Z</time>
      </trkpt>
      <trkpt lat="48.69937" lon="7.14802">
        <ele>352.8</ele>
        <time>2023-11-12T16:22:32Z</time>
      </trkpt>
      <trkpt lat="48.6992" lon="7.14804">
        <ele>353.5</ele>
        <time>2023-11-12T16:22:39Z</time>
      </trkpt>
      <trkpt lat="48.69906" lon="7.14828">
        <ele>354.8</ele>
        <time>2023-11-12T16:22:46Z</time>
      </trkpt>
      <trkpt lat="48.69894" lon="7.14849">
        <ele>356</ele>
        <time>2023-11-12T16:22:56Z</time>
      </trkpt>
      <trkpt lat="48.69882" lon="7.1487">
        <ele>357.2</ele>
        <time>2023-11-12T16:23:05Z</time>
      </trkpt>
      <trkpt lat="48.69868" lon="7.14892">
        <ele>358.4</ele>
        <time>2023-11-12T16:23:13Z</time>
      </trkpt>
      <trkpt lat="48.69853" lon="7.14911">
        <ele>359.4</ele>
        <time>2023-11-12T16:23:21Z</time>
      </trkpt>
      <trkpt lat="48.69838" lon="7.14928">
        <ele>360.1</ele>
        <time>2023-11-12T16:23:29Z</time>
      </trkpt>
      <trkpt lat="48.69823" lon="7.1495">
        <ele>361</ele>
        <time>2023-11-12T16:23:36Z</time>
      </trkpt>
      <trkpt lat="48.6981" lon="7.1497">
        <ele>361.7</ele>
        <time>2023-11-12T16:23:41Z</time>
      </trkpt>
      <trkpt lat="48.69798" lon="7.14994">
        <ele>362.3</ele>
        <time>2023-11-12T16:23:47Z</time>
      </trkpt>
      <trkpt lat="48.69783" lon="7.15015">
        <ele>362.6</ele>
        <time>2023-11-12T16:23:53Z</time>
      </trkpt>
      <trkpt lat="48.69768" lon="7.15037">
        <ele>362.8</ele>
        <time>2023-11-12T16:23:59Z</time>
      </trkpt>
      <trkpt lat="48.69756" lon="7.15061">
        <ele>362.7</ele>
        <time>2023-11-12T16:24:05Z</time>
      </trkpt>
      <trkpt lat="48.69743" lon="7.15081">
        <ele>362.4</ele>
        <time>2023-11-12T16:24:11Z</time>
      </trkpt>
      <trkpt lat="48.69729" lon="7.15103">
        <ele>362.2</ele>
        <time>2023-11-12T16:24:17Z</time>
      </trkpt>
      <trkpt lat="48.69713" lon="7.15123">
        <ele>362</ele>
        <time>2023-11-12T16:24:23Z</time>
      </trkpt>
      <trkpt lat="48.69699" lon="7.1514">
        <ele>361.7</ele>
        <time>2023-11-12T16:24:28Z</time>
      </trkpt>
      <trkpt lat="48.69684" lon="7.1516">
        <ele>361.6</ele>
        <time>2023-11-12T16:24:34Z</time>
      </trkpt>
      <trkpt lat="48.69669" lon="7.1518">
        <ele>361.6</ele>
        <time>2023-11-12T16:24:40Z</time>
      </trkpt>
      <trkpt lat="48.69655" lon="7.15199">
        <ele>361.6</ele>
        <time>2023-11-12T16:24:46Z</time>
      </trkpt>
      <trkpt lat="48.69642" lon="7.15218">
        <ele>361.6</ele>
        <time>2023-11-12T16:24:52Z</time>
      </trkpt>
      <trkpt lat="48.69626" lon="7.15234">
        <ele>361.4</ele>
        <time>2023-11-12T16:24:57Z</time>
      </trkpt>
      <trkpt lat="48.6961" lon="7.1525">
        <ele>361</ele>
        <time>2023-11-12T16:25:02Z</time>
      </trkpt>
      <trkpt lat="48.69595" lon="7.15266">
        <ele>360.8</ele>
        <time>2023-11-12T16:25:07Z</time>
      </trkpt>
      <trkpt lat="48.69578" lon="7.15286">
        <ele>360.8</ele>
        <time>2023-11-12T16:25:13Z</time>
      </trkpt>
      <trkpt lat="48.69563" lon="7.15307">
        <ele>361.2</ele>
        <time>2023-11-12T16:25:19Z</time>
      </trkpt>
      <trkpt lat="48.69549" lon="7.15326">
        <ele>361.7</ele>
        <time>2023-11-12T16:25:25Z</time>
      </trkpt>
      <trkpt lat="48.69535" lon="7.15348">
        <ele>362.1</ele>
        <time>2023-11-12T16:25:33Z</time>
      </trkpt>
      <trkpt lat="48.69517" lon="7.15364">
        <ele>362.7</ele>
        <time>2023-11-12T16:25:39Z</time>
      </trkpt>
      <trkpt lat="48.69503" lon="7.15386">
        <ele>363.5</ele>
        <time>2023-11-12T16:25:46Z</time>
      </trkpt>
      <trkpt lat="48.69489" lon="7.15407">
        <ele>364.2</ele>
        <time>2023-11-12T16:25:53Z</time>
      </trkpt>
      <trkpt lat="48.69474" lon="7.15428">
        <ele>364.7</ele>
        <time>2023-11-12T16:26:01Z</time>
      </trkpt>
      <trkpt lat="48.69462" lon="7.15451">
        <ele>365.2</ele>
        <time>2023-11-12T16:26:10Z</time>
      </trkpt>
      <trkpt lat="48.69446" lon="7.15468">
        <ele>365.7</ele>
        <time>2023-11-12T16:26:18Z</time>
      </trkpt>
      <trkpt lat="48.69432" lon="7.15484">
        <ele>366.3</ele>
        <time>2023-11-12T16:26:26Z</time>
      </trkpt>
      <trkpt lat="48.69417" lon="7.15503">
        <ele>366.8</ele>
        <time>2023-11-12T16:26:32Z</time>
      </trkpt>
      <trkpt lat="48.694" lon="7.15522">
        <ele>367.4</ele>
        <time>2023-11-12T16:26:38Z</time>
      </trkpt>
      <trkpt lat="48.69385" lon="7.15538">
        <ele>367.9</ele>
        <time>2023-11-12T16:26:44Z</time>
      </trkpt>
      <trkpt lat="48.69371" lon="7.15557">
        <ele>368.4</ele>
        <time>2023-11-12T16:26:50Z</time>
      </trkpt>
      <trkpt lat="48.69358" lon="7.15577">
        <ele>368.7</ele>
        <time>2023-11-12T16:26:57Z</time>
      </trkpt>
      <trkpt lat="48.69344" lon="7.15597">
        <ele>368.8</ele>
        <time>2023-11-12T16:27:04Z</time>
      </trkpt>
      <trkpt lat="48.69329" lon="7.15616">
        <ele>368.9</ele>
        <time>2023-11-12T16:27:10Z</time>
      </trkpt>
      <trkpt lat="48.69316" lon="7.15636">
        <ele>369</ele>
        <time>2023-11-12T16:27:14Z</time>
      </trkpt>
      <trkpt lat="48.69301" lon="7.15654">
        <ele>368.5</ele>
        <time>2023-11-12T16:27:19Z</time>
      </trkpt>
      <trkpt lat="48.69285" lon="7.15676">
        <ele>367.6</ele>
        <time>2023-11-12T16:27:25Z</time>
      </trkpt>
      <trkpt lat="48.6928" lon="7.15703">
        <ele>366.9</ele>
        <time>2023-11-12T16:27:31Z</time>
      </trkpt>
      <trkpt lat="48.69282" lon="7.15733">
        <ele>366.3</ele>
        <time>2023-11-12T16:27:37Z</time>
      </trkpt>
      <trkpt lat="48.69283" lon="7.15764">
        <ele>365.6</ele>
        <time>2023-11-12T16:27:44Z</time>
      </trkpt>
      <trkpt lat="48.69289" lon="7.15794">
        <ele>364.8</ele>
        <time>2023-11-12T16:27:51Z</time>
      </trkpt>
      <trkpt lat="48.69299" lon="7.15819">
        <ele>364.2</ele>
        <time>2023-11-12T16:27:57Z</time>
      </trkpt>
      <trkpt lat="48.69312" lon="7.15844">
        <ele>363.8</ele>
        <time>2023-11-12T16:28:03Z</time>
      </trkpt>
      <trkpt lat="48.69322" lon="7.15872">
        <ele>363.6</ele>
        <time>2023-11-12T16:28:09Z</time>
      </trkpt>
      <trkpt lat="48.69331" lon="7.15899">
        <ele>363.4</ele>
        <time>2023-11-12T16:28:15Z</time>
      </trkpt>
      <trkpt lat="48.69342" lon="7.15923">
        <ele>363.4</ele>
        <time>2023-11-12T16:28:21Z</time>
      </trkpt>
      <trkpt lat="48.69351" lon="7.1595">
        <ele>363.5</ele>
        <time>2023-11-12T16:28:27Z</time>
      </trkpt>
      <trkpt lat="48.6936" lon="7.15975">
        <ele>363.7</ele>
        <time>2023-11-12T16:28:33Z</time>
      </trkpt>
      <trkpt lat="48.69369" lon="7.16001">
        <ele>364</ele>
        <time>2023-11-12T16:28:39Z</time>
      </trkpt>
      <trkpt lat="48.69383" lon="7.16025">
        <ele>364.5</ele>
        <time>2023-11-12T16:28:46Z</time>
      </trkpt>
      <trkpt lat="48.69399" lon="7.16045">
        <ele>365</ele>
        <time>2023-11-12T16:28:53Z</time>
      </trkpt>
      <trkpt lat="48.6941" lon="7.16071">
        <ele>365.4</ele>
        <time>2023-11-12T16:29:00Z</time>
      </trkpt>
      <trkpt lat="48.69418" lon="7.16096">
        <ele>365.9</ele>
        <time>2023-11-12T16:29:06Z</time>
      </trkpt>
      <trkpt lat="48.69431" lon="7.1612">
        <ele>366.5</ele>
        <time>2023-11-12T16:29:12Z</time>
      </trkpt>
      <trkpt lat="48.69443" lon="7.16145">
        <ele>367.2</ele>
        <time>2023-11-12T16:29:19Z</time>
      </trkpt>
      <trkpt lat="48.69455" lon="7.16168">
        <ele>367.7</ele>
        <time>2023-11-12T16:29:25Z</time>
      </trkpt>
      <trkpt lat="48.69464" lon="7.16195">
        <ele>368</ele>
        <time>2023-11-12T16:29:32Z</time>
      </trkpt>
      <trkpt lat="48.69473" lon="7.16221">
        <ele>368.5</ele>
        <time>2023-11-12T16:29:39Z</time>
      </trkpt>
      <trkpt lat="48.69481" lon="7.16247">
        <ele>368.8</ele>
        <time>2023-11-12T16:29:46Z</time>
      </trkpt>
      <trkpt lat="48.69489" lon="7.16272">
        <ele>369.1</ele>
        <time>2023-11-12T16:29:52Z</time>
      </trkpt>
      <trkpt lat="48.69491" lon="7.163">
        <ele>369.4</ele>
        <time>2023-11-12T16:29:58Z</time>
      </trkpt>
      <trkpt lat="48.69493" lon="7.16328">
        <ele>369.5</ele>
        <time>2023-11-12T16:30:05Z</time>
      </trkpt>
      <trkpt lat="48.69491" lon="7.16359">
        <ele>369.6</ele>
        <time>2023-11-12T16:30:12Z</time>
      </trkpt>
      <trkpt lat="48.69492" lon="7.16387">
        <ele>369.6</ele>
        <time>2023-11-12T16:30:19Z</time>
      </trkpt>
      <trkpt lat="48.69489" lon="7.16419">
        <ele>369.7</ele>
        <time>2023-11-12T16:30:26Z</time>
      </trkpt>
      <trkpt lat="48.69487" lon="7.16446">
        <ele>370</ele>
        <time>2023-11-12T16:30:32Z</time>
      </trkpt>
      <trkpt lat="48.69485" lon="7.16477">
        <ele>370.4</ele>
        <time>2023-11-12T16:30:38Z</time>
      </trkpt>
      <trkpt lat="48.69484" lon="7.16507">
        <ele>370.9</ele>
        <time>2023-11-12T16:30:44Z</time>
      </trkpt>
      <trkpt lat="48.69485" lon="7.16536">
        <ele>371.4</ele>
        <time>2023-11-12T16:30:51Z</time>
      </trkpt>
      <trkpt lat="48.69482" lon="7.16566">
        <ele>372</ele>
        <time>2023-11-12T16:30:59Z</time>
      </trkpt>
      <trkpt lat="48.69485" lon="7.16593">
        <ele>372.7</ele>
        <time>2023-11-12T16:31:06Z</time>
      </trkpt>
      <trkpt lat="48.69485" lon="7.16621">
        <ele>373.5</ele>
        <time>2023-11-12T16:31:13Z</time>
      </trkpt>
      <trkpt lat="48.69482" lon="7.16651">
        <ele>374.4</ele>
        <time>2023-11-12T16:31:19Z</time>
      </trkpt>
      <trkpt lat="48.69486" lon="7.1668">
        <ele>375.2</ele>
        <time>2023-11-12T16:31:26Z</time>
      </trkpt>
      <trkpt lat="48.6949" lon="7.16708">
        <ele>375.8</ele>
        <time>2023-11-12T16:31:33Z</time>
      </trkpt>
      <trkpt lat="48.69492" lon="7.16739">
        <ele>376.7</ele>
        <time>2023-11-12T16:31:40Z</time>
      </trkpt>
      <trkpt lat="48.69497" lon="7.16767">
        <ele>377.4</ele>
        <time>2023-11-12T16:31:45Z</time>
      </trkpt>
      <trkpt lat="48.69502" lon="7.16794">
        <ele>378</ele>
        <time>2023-11-12T16:31:50Z</time>
      </trkpt>
      <trkpt lat="48.69501" lon="7.16822">
        <ele>378.7</ele>
        <time>2023-11-12T16:31:56Z</time>
      </trkpt>
      <trkpt lat="48.69493" lon="7.16851">
        <ele>377.1</ele>
        <time>2023-11-12T16:32:04Z</time>
      </trkpt>
      <trkpt lat="48.69486" lon="7.16878">
        <ele>375.6</ele>
        <time>2023-11-12T16:32:12Z</time>
      </trkpt>
      <trkpt lat="48.69487" lon="7.16908">
        <ele>375.3</ele>
        <time>2023-11-12T16:32:19Z</time>
      </trkpt>
      <trkpt lat="48.69486" lon="7.16937">
        <ele>374.6</ele>
        <time>2023-11-12T16:32:25Z</time>
      </trkpt>
      <trkpt lat="48.6949" lon="7.16969">
        <ele>374.8</ele>
        <time>2023-11-12T16:32:32Z</time>
      </trkpt>
      <trkpt lat="48.69498" lon="7.16998">
        <ele>374.6</ele>
        <time>2023-11-12T16:32:38Z</time>
      </trkpt>
      <trkpt lat="48.69498" lon="7.17027">
        <ele>374</ele>
        <time>2023-11-12T16:32:44Z</time>
      </trkpt>
      <trkpt lat="48.69494" lon="7.17055">
        <ele>373.4</ele>
        <time>2023-11-12T16:32:51Z</time>
      </trkpt>
      <trkpt lat="48.69483" lon="7.17084">
        <ele>371.9</ele>
        <time>2023-11-12T16:32:57Z</time>
      </trkpt>
      <trkpt lat="48.69467" lon="7.17105">
        <ele>369.1</ele>
        <time>2023-11-12T16:33:01Z</time>
      </trkpt>
      <trkpt lat="48.69456" lon="7.1713">
        <ele>366.2</ele>
        <time>2023-11-12T16:33:08Z</time>
      </trkpt>
      <trkpt lat="48.69442" lon="7.17152">
        <ele>363.1</ele>
        <time>2023-11-12T16:33:14Z</time>
      </trkpt>
      <trkpt lat="48.69429" lon="7.17173">
        <ele>361.6</ele>
        <time>2023-11-12T16:33:21Z</time>
      </trkpt>
      <trkpt lat="48.69414" lon="7.17195">
        <ele>360.3</ele>
        <time>2023-11-12T16:33:29Z</time>
      </trkpt>
      <trkpt lat="48.69399" lon="7.17213">
        <ele>359.9</ele>
        <time>2023-11-12T16:33:36Z</time>
      </trkpt>
      <trkpt lat="48.69382" lon="7.17227">
        <ele>359.8</ele>
        <time>2023-11-12T16:33:42Z</time>
      </trkpt>
      <trkpt lat="48.69374" lon="7.17229">
        <ele>359.5</ele>
        <time>2023-11-12T16:33:47Z</time>
      </trkpt>
      <trkpt lat="48.69361" lon="7.17237">
        <ele>359.4</ele>
        <time>2023-11-12T16:33:55Z</time>
      </trkpt>
      <trkpt lat="48.69353" lon="7.17241">
        <ele>359.5</ele>
        <time>2023-11-12T16:33:56Z</time>
      </trkpt>
      <trkpt lat="48.69334" lon="7.1725">
        <ele>360.2</ele>
        <time>2023-11-12T16:34:04Z</time>
      </trkpt>
      <trkpt lat="48.69315" lon="7.17263">
        <ele>362.3</ele>
        <time>2023-11-12T16:34:09Z</time>
      </trkpt>
      <trkpt lat="48.69297" lon="7.17276">
        <ele>366.1</ele>
        <time>2023-11-12T16:34:12Z</time>
      </trkpt>
      <trkpt lat="48.69277" lon="7.17289">
        <ele>371.3</ele>
        <time>2023-11-12T16:34:18Z</time>
      </trkpt>
      <trkpt lat="48.6926" lon="7.17302">
        <ele>376.4</ele>
        <time>2023-11-12T16:34:26Z</time>
      </trkpt>
      <trkpt lat="48.69243" lon="7.17318">
        <ele>380.9</ele>
        <time>2023-11-12T16:34:33Z</time>
      </trkpt>
      <trkpt lat="48.69234" lon="7.17334">
        <ele>383.2</ele>
        <time>2023-11-12T16:34:38Z</time>
      </trkpt>
      <trkpt lat="48.69253" lon="7.1733">
        <ele>381.5</ele>
        <time>2023-11-12T16:34:46Z</time>
      </trkpt>
      <trkpt lat="48.69268" lon="7.1733">
        <ele>379.4</ele>
        <time>2023-11-12T16:34:53Z</time>
      </trkpt>
      <trkpt lat="48.69269" lon="7.17359">
        <ele>380.3</ele>
        <time>2023-11-12T16:35:00Z</time>
      </trkpt>
      <trkpt lat="48.69268" lon="7.17389">
        <ele>381.2</ele>
        <time>2023-11-12T16:35:08Z</time>
      </trkpt>
      <trkpt lat="48.69264" lon="7.17416">
        <ele>382.1</ele>
        <time>2023-11-12T16:35:17Z</time>
      </trkpt>
      <trkpt lat="48.69259" lon="7.17442">
        <ele>383</ele>
        <time>2023-11-12T16:35:26Z</time>
      </trkpt>
      <trkpt lat="48.69257" lon="7.17472">
        <ele>383.9</ele>
        <time>2023-11-12T16:35:35Z</time>
      </trkpt>
      <trkpt lat="48.69258" lon="7.17503">
        <ele>384.9</ele>
        <time>2023-11-12T16:35:43Z</time>
      </trkpt>
      <trkpt lat="48.69253" lon="7.17532">
        <ele>385.8</ele>
        <time>2023-11-12T16:35:50Z</time>
      </trkpt>
      <trkpt lat="48.69248" lon="7.1756">
        <ele>386.7</ele>
        <time>2023-11-12T16:35:57Z</time>
      </trkpt>
      <trkpt lat="48.69245" lon="7.17588">
        <ele>387.6</ele>
        <time>2023-11-12T16:36:03Z</time>
      </trkpt>
      <trkpt lat="48.69244" lon="7.17617">
        <ele>388.5</ele>
        <time>2023-11-12T16:36:10Z</time>
      </trkpt>
      <trkpt lat="48.69241" lon="7.17646">
        <ele>389.5</ele>
        <time>2023-11-12T16:36:17Z</time>
      </trkpt>
      <trkpt lat="48.69235" lon="7.17675">
        <ele>390.4</ele>
        <time>2023-11-12T16:36:24Z</time>
      </trkpt>
      <trkpt lat="48.69232" lon="7.17703">
        <ele>391.3</ele>
        <time>2023-11-12T16:36:31Z</time>
      </trkpt>
      <trkpt lat="48.69227" lon="7.1773">
        <ele>392.2</ele>
        <time>2023-11-12T16:36:38Z</time>
      </trkpt>
      <trkpt lat="48.69225" lon="7.17758">
        <ele>393.1</ele>
        <time>2023-11-12T16:36:45Z</time>
      </trkpt>
      <trkpt lat="48.6922" lon="7.17786">
        <ele>394</ele>
        <time>2023-11-12T16:36:52Z</time>
      </trkpt>
      <trkpt lat="48.69218" lon="7.17816">
        <ele>394.9</ele>
        <time>2023-11-12T16:37:00Z</time>
      </trkpt>
      <trkpt lat="48.69218" lon="7.17846">
        <ele>395.9</ele>
        <time>2023-11-12T16:37:07Z</time>
      </trkpt>
      <trkpt lat="48.6922" lon="7.17875">
        <ele>396.8</ele>
        <time>2023-11-12T16:37:14Z</time>
      </trkpt>
      <trkpt lat="48.6922" lon="7.17904">
        <ele>397.7</ele>
        <time>2023-11-12T16:37:21Z</time>
      </trkpt>
      <trkpt lat="48.69219" lon="7.17932">
        <ele>398.6</ele>
        <time>2023-11-12T16:37:29Z</time>
      </trkpt>
      <trkpt lat="48.69219" lon="7.17962">
        <ele>399.5</ele>
        <time>2023-11-12T16:37:37Z</time>
      </trkpt>
      <trkpt lat="48.69219" lon="7.17991">
        <ele>400.4</ele>
        <time>2023-11-12T16:37:45Z</time>
      </trkpt>
      <trkpt lat="48.69215" lon="7.1802">
        <ele>401.4</ele>
        <time>2023-11-12T16:37:53Z</time>
      </trkpt>
      <trkpt lat="48.69205" lon="7.18049">
        <ele>402.4</ele>
        <time>2023-11-12T16:37:59Z</time>
      </trkpt>
      <trkpt lat="48.69202" lon="7.18076">
        <ele>403.3</ele>
        <time>2023-11-12T16:38:06Z</time>
      </trkpt>
      <trkpt lat="48.69195" lon="7.18106">
        <ele>404.3</ele>
        <time>2023-11-12T16:38:13Z</time>
      </trkpt>
      <trkpt lat="48.6919" lon="7.18133">
        <ele>405.1</ele>
        <time>2023-11-12T16:38:19Z</time>
      </trkpt>
      <trkpt lat="48.69184" lon="7.18162">
        <ele>406.1</ele>
        <time>2023-11-12T16:38:25Z</time>
      </trkpt>
      <trkpt lat="48.69182" lon="7.18189">
        <ele>408.2</ele>
        <time>2023-11-12T16:38:31Z</time>
      </trkpt>
      <trkpt lat="48.69184" lon="7.18192">
        <ele>410.2</ele>
        <time>2023-11-12T16:38:32Z</time>
      </trkpt>
      <trkpt lat="48.69185" lon="7.1819">
        <ele>412.2</ele>
        <time>2023-11-12T16:38:34Z</time>
      </trkpt>
      <trkpt lat="48.69195" lon="7.18163">
        <ele>412.5</ele>
        <time>2023-11-12T16:38:42Z</time>
      </trkpt>
      <trkpt lat="48.69205" lon="7.18139">
        <ele>412.7</ele>
        <time>2023-11-12T16:38:49Z</time>
      </trkpt>
      <trkpt lat="48.69213" lon="7.18112">
        <ele>413.1</ele>
        <time>2023-11-12T16:38:56Z</time>
      </trkpt>
      <trkpt lat="48.69225" lon="7.18086">
        <ele>413.1</ele>
        <time>2023-11-12T16:39:02Z</time>
      </trkpt>
      <trkpt lat="48.69238" lon="7.18065">
        <ele>413</ele>
        <time>2023-11-12T16:39:09Z</time>
      </trkpt>
      <trkpt lat="48.69251" lon="7.18042">
        <ele>412.9</ele>
        <time>2023-11-12T16:39:16Z</time>
      </trkpt>
      <trkpt lat="48.69265" lon="7.18024">
        <ele>412.7</ele>
        <time>2023-11-12T16:39:22Z</time>
      </trkpt>
      <trkpt lat="48.69279" lon="7.18003">
        <ele>412.5</ele>
        <time>2023-11-12T16:39:29Z</time>
      </trkpt>
      <trkpt lat="48.69291" lon="7.1798">
        <ele>412.1</ele>
        <time>2023-11-12T16:39:36Z</time>
      </trkpt>
      <trkpt lat="48.69303" lon="7.17959">
        <ele>411.6</ele>
        <time>2023-11-12T16:39:43Z</time>
      </trkpt>
      <trkpt lat="48.69313" lon="7.17932">
        <ele>410.8</ele>
        <time>2023-11-12T16:39:50Z</time>
      </trkpt>
      <trkpt lat="48.69324" lon="7.17906">
        <ele>409.8</ele>
        <time>2023-11-12T16:39:56Z</time>
      </trkpt>
      <trkpt lat="48.69336" lon="7.17881">
        <ele>408.6</ele>
        <time>2023-11-12T16:40:02Z</time>
      </trkpt>
      <trkpt lat="48.69349" lon="7.17856">
        <ele>407.8</ele>
        <time>2023-11-12T16:40:08Z</time>
      </trkpt>
      <trkpt lat="48.6936" lon="7.17834">
        <ele>407</ele>
        <time>2023-11-12T16:40:13Z</time>
      </trkpt>
      <trkpt lat="48.69373" lon="7.17809">
        <ele>406.1</ele>
        <time>2023-11-12T16:40:19Z</time>
      </trkpt>
      <trkpt lat="48.69381" lon="7.17782">
        <ele>405.5</ele>
        <time>2023-11-12T16:40:25Z</time>
      </trkpt>
      <trkpt lat="48.69388" lon="7.17756">
        <ele>405.1</ele>
        <time>2023-11-12T16:40:31Z</time>
      </trkpt>
      <trkpt lat="48.69397" lon="7.1773">
        <ele>404.8</ele>
        <time>2023-11-12T16:40:39Z</time>
      </trkpt>
      <trkpt lat="48.69408" lon="7.17706">
        <ele>404.6</ele>
        <time>2023-11-12T16:40:45Z</time>
      </trkpt>
      <trkpt lat="48.69421" lon="7.17685">
        <ele>404.5</ele>
        <time>2023-11-12T16:40:52Z</time>
      </trkpt>
      <trkpt lat="48.69438" lon="7.1767">
        <ele>404.3</ele>
        <time>2023-11-12T16:40:58Z</time>
      </trkpt>
      <trkpt lat="48.69452" lon="7.17652">
        <ele>404.2</ele>
        <time>2023-11-12T16:41:04Z</time>
      </trkpt>
      <trkpt lat="48.69468" lon="7.17636">
        <ele>403.9</ele>
        <time>2023-11-12T16:41:11Z</time>
      </trkpt>
      <trkpt lat="48.69482" lon="7.17619">
        <ele>403.8</ele>
        <time>2023-11-12T16:41:18Z</time>
      </trkpt>
      <trkpt lat="48.69497" lon="7.17603">
        <ele>403.9</ele>
        <time>2023-11-12T16:41:25Z</time>
      </trkpt>
      <trkpt lat="48.69513" lon="7.17587">
        <ele>403.8</ele>
        <time>2023-11-12T16:41:30Z</time>
      </trkpt>
      <trkpt lat="48.69529" lon="7.17567">
        <ele>404</ele>
        <time>2023-11-12T16:41:35Z</time>
      </trkpt>
      <trkpt lat="48.69539" lon="7.1756">
        <ele>403.9</ele>
        <time>2023-11-12T16:41:39Z</time>
      </trkpt>
      <trkpt lat="48.6955" lon="7.17582">
        <ele>404.4</ele>
        <time>2023-11-12T16:41:44Z</time>
      </trkpt>
      <trkpt lat="48.69557" lon="7.17612">
        <ele>404.5</ele>
        <time>2023-11-12T16:41:50Z</time>
      </trkpt>
      <trkpt lat="48.69562" lon="7.17642">
        <ele>404.2</ele>
        <time>2023-11-12T16:41:56Z</time>
      </trkpt>
      <trkpt lat="48.69567" lon="7.1767">
        <ele>403.7</ele>
        <time>2023-11-12T16:42:02Z</time>
      </trkpt>
      <trkpt lat="48.69571" lon="7.17696">
        <ele>403.1</ele>
        <time>2023-11-12T16:42:08Z</time>
      </trkpt>
      <trkpt lat="48.69568" lon="7.17725">
        <ele>402.3</ele>
        <time>2023-11-12T16:42:14Z</time>
      </trkpt>
      <trkpt lat="48.6956" lon="7.17752">
        <ele>401.1</ele>
        <time>2023-11-12T16:42:20Z</time>
      </trkpt>
      <trkpt lat="48.69554" lon="7.1778">
        <ele>400</ele>
        <time>2023-11-12T16:42:27Z</time>
      </trkpt>
      <trkpt lat="48.69549" lon="7.17812">
        <ele>398.8</ele>
        <time>2023-11-12T16:42:34Z</time>
      </trkpt>
      <trkpt lat="48.69545" lon="7.17841">
        <ele>397.8</ele>
        <time>2023-11-12T16:42:40Z</time>
      </trkpt>
      <trkpt lat="48.69547" lon="7.17849">
        <ele>397.7</ele>
        <time>2023-11-12T16:42:43Z</time>
      </trkpt>
      <trkpt lat="48.69562" lon="7.17836">
        <ele>397.7</ele>
        <time>2023-11-12T16:42:53Z</time>
      </trkpt>
      <trkpt lat="48.69575" lon="7.17818">
        <ele>398</ele>
        <time>2023-11-12T16:43:02Z</time>
      </trkpt>
      <trkpt lat="48.6958" lon="7.17821">
        <ele>397.7</ele>
        <time>2023-11-12T16:43:03Z</time>
      </trkpt>
      <trkpt lat="48.69583" lon="7.17848">
        <ele>395.8</ele>
        <time>2023-11-12T16:43:14Z</time>
      </trkpt>
      <trkpt lat="48.69596" lon="7.17871">
        <ele>393.2</ele>
        <time>2023-11-12T16:43:23Z</time>
      </trkpt>
      <trkpt lat="48.69614" lon="7.17881">
        <ele>391</ele>
        <time>2023-11-12T16:43:28Z</time>
      </trkpt>
      <trkpt lat="48.69632" lon="7.17884">
        <ele>388.7</ele>
        <time>2023-11-12T16:43:35Z</time>
      </trkpt>
      <trkpt lat="48.69651" lon="7.17889">
        <ele>385.8</ele>
        <time>2023-11-12T16:43:44Z</time>
      </trkpt>
      <trkpt lat="48.6967" lon="7.17883">
        <ele>384.3</ele>
        <time>2023-11-12T16:43:50Z</time>
      </trkpt>
      <trkpt lat="48.69689" lon="7.17875">
        <ele>382.9</ele>
        <time>2023-11-12T16:43:56Z</time>
      </trkpt>
      <trkpt lat="48.69709" lon="7.17871">
        <ele>380.7</ele>
        <time>2023-11-12T16:44:02Z</time>
      </trkpt>
      <trkpt lat="48.69729" lon="7.17865">
        <ele>378.8</ele>
        <time>2023-11-12T16:44:08Z</time>
      </trkpt>
      <trkpt lat="48.6975" lon="7.17863">
        <ele>377.3</ele>
        <time>2023-11-12T16:44:14Z</time>
      </trkpt>
      <trkpt lat="48.6977" lon="7.17858">
        <ele>377.1</ele>
        <time>2023-11-12T16:44:19Z</time>
      </trkpt>
      <trkpt lat="48.69787" lon="7.17843">
        <ele>377.1</ele>
        <time>2023-11-12T16:44:24Z</time>
      </trkpt>
      <trkpt lat="48.69803" lon="7.17826">
        <ele>377.5</ele>
        <time>2023-11-12T16:44:30Z</time>
      </trkpt>
      <trkpt lat="48.69816" lon="7.17807">
        <ele>377.4</ele>
        <time>2023-11-12T16:44:36Z</time>
      </trkpt>
      <trkpt lat="48.69827" lon="7.17782">
        <ele>378.3</ele>
        <time>2023-11-12T16:44:43Z</time>
      </trkpt>
      <trkpt lat="48.69839" lon="7.17763">
        <ele>380</ele>
        <time>2023-11-12T16:44:53Z</time>
      </trkpt>
      <trkpt lat="48.69858" lon="7.17766">
        <ele>380.4</ele>
        <time>2023-11-12T16:45:01Z</time>
      </trkpt>
      <trkpt lat="48.69875" lon="7.17779">
        <ele>380.9</ele>
        <time>2023-11-12T16:45:10Z</time>
      </trkpt>
      <trkpt lat="48.69884" lon="7.17786">
        <ele>381.3</ele>
        <time>2023-11-12T16:45:17Z</time>
      </trkpt>
      <trkpt lat="48.69904" lon="7.17787">
        <ele>384.8</ele>
        <time>2023-11-12T16:45:24Z</time>
      </trkpt>
      <trkpt lat="48.69922" lon="7.17784">
        <ele>387.7</ele>
        <time>2023-11-12T16:45:31Z</time>
      </trkpt>
      <trkpt lat="48.69938" lon="7.1777">
        <ele>389.3</ele>
        <time>2023-11-12T16:45:39Z</time>
      </trkpt>
      <trkpt lat="48.69953" lon="7.17752">
        <ele>389.6</ele>
        <time>2023-11-12T16:45:49Z</time>
      </trkpt>
      <trkpt lat="48.69964" lon="7.17729">
        <ele>389.7</ele>
        <time>2023-11-12T16:46:00Z</time>
      </trkpt>
      <trkpt lat="48.69973" lon="7.17704">
        <ele>390.6</ele>
        <time>2023-11-12T16:46:08Z</time>
      </trkpt>
      <trkpt lat="48.69982" lon="7.17692">
        <ele>391</ele>
        <time>2023-11-12T16:46:13Z</time>
      </trkpt>
      <trkpt lat="48.69995" lon="7.17712">
        <ele>390.3</ele>
        <time>2023-11-12T16:46:20Z</time>
      </trkpt>
      <trkpt lat="48.7" lon="7.17737">
        <ele>389.7</ele>
        <time>2023-11-12T16:46:28Z</time>
      </trkpt>
      <trkpt lat="48.69998" lon="7.17767">
        <ele>388.6</ele>
        <time>2023-11-12T16:46:36Z</time>
      </trkpt>
      <trkpt lat="48.69998" lon="7.17796">
        <ele>387.8</ele>
        <time>2023-11-12T16:46:42Z</time>
      </trkpt>
      <trkpt lat="48.70004" lon="7.17827">
        <ele>387.2</ele>
        <time>2023-11-12T16:46:48Z</time>
      </trkpt>
      <trkpt lat="48.70012" lon="7.17856">
        <ele>386.8</ele>
        <time>2023-11-12T16:46:54Z</time>
      </trkpt>
      <trkpt lat="48.70021" lon="7.17881">
        <ele>386.5</ele>
        <time>2023-11-12T16:47:00Z</time>
      </trkpt>
      <trkpt lat="48.70032" lon="7.17905">
        <ele>386.2</ele>
        <time>2023-11-12T16:47:06Z</time>
      </trkpt>
      <trkpt lat="48.70043" lon="7.17929">
        <ele>386</ele>
        <time>2023-11-12T16:47:12Z</time>
      </trkpt>
      <trkpt lat="48.70052" lon="7.17956">
        <ele>385.9</ele>
        <time>2023-11-12T16:47:19Z</time>
      </trkpt>
      <trkpt lat="48.70061" lon="7.17977">
        <ele>385.8</ele>
        <time>2023-11-12T16:47:26Z</time>
      </trkpt>
      <trkpt lat="48.70078" lon="7.17965">
        <ele>384.6</ele>
        <time>2023-11-12T16:47:32Z</time>
      </trkpt>
      <trkpt lat="48.70092" lon="7.17944">
        <ele>383.9</ele>
        <time>2023-11-12T16:47:38Z</time>
      </trkpt>
      <trkpt lat="48.70106" lon="7.17921">
        <ele>382.8</ele>
        <time>2023-11-12T16:47:44Z</time>
      </trkpt>
      <trkpt lat="48.70118" lon="7.17897">
        <ele>381.6</ele>
        <time>2023-11-12T16:47:50Z</time>
      </trkpt>
      <trkpt lat="48.70121" lon="7.17894">
        <ele>381.4</ele>
        <time>2023-11-12T16:47:51Z</time>
      </trkpt>
      <trkpt lat="48.70126" lon="7.17887">
        <ele>381</ele>
        <time>2023-11-12T16:48:25Z</time>
      </trkpt>
      <trkpt lat="48.70131" lon="7.1786">
        <ele>379.8</ele>
        <time>2023-11-12T16:48:32Z</time>
      </trkpt>
      <trkpt lat="48.70135" lon="7.17831">
        <ele>378.7</ele>
        <time>2023-11-12T16:48:38Z</time>
      </trkpt>
      <trkpt lat="48.70139" lon="7.17804">
        <ele>377.6</ele>
        <time>2023-11-12T16:48:44Z</time>
      </trkpt>
      <trkpt lat="48.70144" lon="7.17776">
        <ele>376.4</ele>
        <time>2023-11-12T16:48:50Z</time>
      </trkpt>
      <trkpt lat="48.70149" lon="7.17747">
        <ele>375.1</ele>
        <time>2023-11-12T16:48:56Z</time>
      </trkpt>
      <trkpt lat="48.70152" lon="7.17719">
        <ele>373.9</ele>
        <time>2023-11-12T16:49:02Z</time>
      </trkpt>
      <trkpt lat="48.70154" lon="7.17689">
        <ele>372.5</ele>
        <time>2023-11-12T16:49:09Z</time>
      </trkpt>
      <trkpt lat="48.70157" lon="7.17659">
        <ele>371</ele>
        <time>2023-11-12T16:49:16Z</time>
      </trkpt>
      <trkpt lat="48.70164" lon="7.1763">
        <ele>369.5</ele>
        <time>2023-11-12T16:49:23Z</time>
      </trkpt>
      <trkpt lat="48.70175" lon="7.17606">
        <ele>368.3</ele>
        <time>2023-11-12T16:49:29Z</time>
      </trkpt>
      <trkpt lat="48.70183" lon="7.1758">
        <ele>367.3</ele>
        <time>2023-11-12T16:49:34Z</time>
      </trkpt>
      <trkpt lat="48.70194" lon="7.17553">
        <ele>366.2</ele>
        <time>2023-11-12T16:49:40Z</time>
      </trkpt>
      <trkpt lat="48.70205" lon="7.17525">
        <ele>365</ele>
        <time>2023-11-12T16:49:46Z</time>
      </trkpt>
      <trkpt lat="48.70219" lon="7.17501">
        <ele>364</ele>
        <time>2023-11-12T16:49:52Z</time>
      </trkpt>
      <trkpt lat="48.70233" lon="7.17477">
        <ele>363.1</ele>
        <time>2023-11-12T16:49:59Z</time>
      </trkpt>
      <trkpt lat="48.7025" lon="7.17458">
        <ele>362.2</ele>
        <time>2023-11-12T16:50:05Z</time>
      </trkpt>
      <trkpt lat="48.70265" lon="7.17438">
        <ele>361.1</ele>
        <time>2023-11-12T16:50:11Z</time>
      </trkpt>
      <trkpt lat="48.70279" lon="7.17421">
        <ele>359.8</ele>
        <time>2023-11-12T16:50:17Z</time>
      </trkpt>
      <trkpt lat="48.70295" lon="7.17402">
        <ele>358.3</ele>
        <time>2023-11-12T16:50:23Z</time>
      </trkpt>
      <trkpt lat="48.70303" lon="7.17385">
        <ele>357.3</ele>
        <time>2023-11-12T16:50:28Z</time>
      </trkpt>
      <trkpt lat="48.70287" lon="7.1737">
        <ele>359.4</ele>
        <time>2023-11-12T16:50:36Z</time>
      </trkpt>
      <trkpt lat="48.70273" lon="7.17351">
        <ele>361.4</ele>
        <time>2023-11-12T16:50:43Z</time>
      </trkpt>
      <trkpt lat="48.70261" lon="7.1733">
        <ele>363.1</ele>
        <time>2023-11-12T16:50:50Z</time>
      </trkpt>
      <trkpt lat="48.70249" lon="7.17308">
        <ele>364.4</ele>
        <time>2023-11-12T16:50:57Z</time>
      </trkpt>
      <trkpt lat="48.70236" lon="7.17288">
        <ele>365.8</ele>
        <time>2023-11-12T16:51:04Z</time>
      </trkpt>
      <trkpt lat="48.70224" lon="7.17267">
        <ele>367.1</ele>
        <time>2023-11-12T16:51:11Z</time>
      </trkpt>
      <trkpt lat="48.70212" lon="7.17245">
        <ele>367.9</ele>
        <time>2023-11-12T16:51:18Z</time>
      </trkpt>
      <trkpt lat="48.70198" lon="7.17222">
        <ele>368.9</ele>
        <time>2023-11-12T16:51:25Z</time>
      </trkpt>
      <trkpt lat="48.70186" lon="7.17198">
        <ele>369.9</ele>
        <time>2023-11-12T16:51:32Z</time>
      </trkpt>
      <trkpt lat="48.70175" lon="7.17172">
        <ele>370.7</ele>
        <time>2023-11-12T16:51:39Z</time>
      </trkpt>
      <trkpt lat="48.70165" lon="7.1715">
        <ele>371.2</ele>
        <time>2023-11-12T16:51:45Z</time>
      </trkpt>
      <trkpt lat="48.70153" lon="7.17126">
        <ele>371.4</ele>
        <time>2023-11-12T16:51:52Z</time>
      </trkpt>
      <trkpt lat="48.70142" lon="7.17103">
        <ele>372</ele>
        <time>2023-11-12T16:51:58Z</time>
      </trkpt>
      <trkpt lat="48.70132" lon="7.1708">
        <ele>372.7</ele>
        <time>2023-11-12T16:52:04Z</time>
      </trkpt>
      <trkpt lat="48.70124" lon="7.17055">
        <ele>372.9</ele>
        <time>2023-11-12T16:52:10Z</time>
      </trkpt>
      <trkpt lat="48.70138" lon="7.17032">
        <ele>371.2</ele>
        <time>2023-11-12T16:52:16Z</time>
      </trkpt>
      <trkpt lat="48.70156" lon="7.17017">
        <ele>369.5</ele>
        <time>2023-11-12T16:52:22Z</time>
      </trkpt>
      <trkpt lat="48.70173" lon="7.17005">
        <ele>368.2</ele>
        <time>2023-11-12T16:52:27Z</time>
      </trkpt>
      <trkpt lat="48.70193" lon="7.16992">
        <ele>366.7</ele>
        <time>2023-11-12T16:52:32Z</time>
      </trkpt>
      <trkpt lat="48.70211" lon="7.1698">
        <ele>365.6</ele>
        <time>2023-11-12T16:52:37Z</time>
      </trkpt>
      <trkpt lat="48.70229" lon="7.16966">
        <ele>364.6</ele>
        <time>2023-11-12T16:52:43Z</time>
      </trkpt>
      <trkpt lat="48.70246" lon="7.16953">
        <ele>363.5</ele>
        <time>2023-11-12T16:52:48Z</time>
      </trkpt>
      <trkpt lat="48.70265" lon="7.16938">
        <ele>362.2</ele>
        <time>2023-11-12T16:52:54Z</time>
      </trkpt>
      <trkpt lat="48.70281" lon="7.16926">
        <ele>360.9</ele>
        <time>2023-11-12T16:52:59Z</time>
      </trkpt>
      <trkpt lat="48.70298" lon="7.16915">
        <ele>359.5</ele>
        <time>2023-11-12T16:53:04Z</time>
      </trkpt>
      <trkpt lat="48.70315" lon="7.16905">
        <ele>357.9</ele>
        <time>2023-11-12T16:53:09Z</time>
      </trkpt>
      <trkpt lat="48.70334" lon="7.16893">
        <ele>356.2</ele>
        <time>2023-11-12T16:53:15Z</time>
      </trkpt>
      <trkpt lat="48.70353" lon="7.16881">
        <ele>354.9</ele>
        <time>2023-11-12T16:53:21Z</time>
      </trkpt>
      <trkpt lat="48.70372" lon="7.16869">
        <ele>354.2</ele>
        <time>2023-11-12T16:53:27Z</time>
      </trkpt>
      <trkpt lat="48.7039" lon="7.16858">
        <ele>353.8</ele>
        <time>2023-11-12T16:53:33Z</time>
      </trkpt>
      <trkpt lat="48.70399" lon="7.16837">
        <ele>353.6</ele>
        <time>2023-11-12T16:53:39Z</time>
      </trkpt>
      <trkpt lat="48.70385" lon="7.16818">
        <ele>355</ele>
        <time>2023-11-12T16:53:46Z</time>
      </trkpt>
      <trkpt lat="48.70367" lon="7.16802">
        <ele>355.8</ele>
        <time>2023-11-12T16:53:53Z</time>
      </trkpt>
      <trkpt lat="48.70348" lon="7.16791">
        <ele>356.4</ele>
        <time>2023-11-12T16:54:00Z</time>
      </trkpt>
      <trkpt lat="48.70331" lon="7.16776">
        <ele>356.9</ele>
        <time>2023-11-12T16:54:06Z</time>
      </trkpt>
      <trkpt lat="48.7032" lon="7.16753">
        <ele>357.4</ele>
        <time>2023-11-12T16:54:12Z</time>
      </trkpt>
      <trkpt lat="48.7032" lon="7.16725">
        <ele>357.7</ele>
        <time>2023-11-12T16:54:18Z</time>
      </trkpt>
      <trkpt lat="48.7032" lon="7.16698">
        <ele>358</ele>
        <time>2023-11-12T16:54:25Z</time>
      </trkpt>
      <trkpt lat="48.70308" lon="7.16676">
        <ele>358.2</ele>
        <time>2023-11-12T16:54:32Z</time>
      </trkpt>
      <trkpt lat="48.70297" lon="7.16655">
        <ele>358</ele>
        <time>2023-11-12T16:54:38Z</time>
      </trkpt>
      <trkpt lat="48.70284" lon="7.16631">
        <ele>358.1</ele>
        <time>2023-11-12T16:54:44Z</time>
      </trkpt>
      <trkpt lat="48.70271" lon="7.16608">
        <ele>359</ele>
        <time>2023-11-12T16:54:50Z</time>
      </trkpt>
      <trkpt lat="48.70257" lon="7.16585">
        <ele>359.2</ele>
        <time>2023-11-12T16:54:56Z</time>
      </trkpt>
      <trkpt lat="48.70243" lon="7.16565">
        <ele>359.2</ele>
        <time>2023-11-12T16:55:02Z</time>
      </trkpt>
      <trkpt lat="48.70229" lon="7.16544">
        <ele>359.3</ele>
        <time>2023-11-12T16:55:08Z</time>
      </trkpt>
      <trkpt lat="48.70214" lon="7.16526">
        <ele>359.6</ele>
        <time>2023-11-12T16:55:14Z</time>
      </trkpt>
      <trkpt lat="48.70199" lon="7.16509">
        <ele>360.4</ele>
        <time>2023-11-12T16:55:20Z</time>
      </trkpt>
      <trkpt lat="48.70184" lon="7.16492">
        <ele>360.5</ele>
        <time>2023-11-12T16:55:26Z</time>
      </trkpt>
      <trkpt lat="48.70168" lon="7.16475">
        <ele>360.6</ele>
        <time>2023-11-12T16:55:32Z</time>
      </trkpt>
      <trkpt lat="48.70153" lon="7.16455">
        <ele>361.1</ele>
        <time>2023-11-12T16:55:38Z</time>
      </trkpt>
      <trkpt lat="48.7014" lon="7.16434">
        <ele>361.1</ele>
        <time>2023-11-12T16:55:44Z</time>
      </trkpt>
      <trkpt lat="48.70127" lon="7.16415">
        <ele>361</ele>
        <time>2023-11-12T16:55:50Z</time>
      </trkpt>
      <trkpt lat="48.70112" lon="7.16391">
        <ele>360.4</ele>
        <time>2023-11-12T16:55:57Z</time>
      </trkpt>
      <trkpt lat="48.70114" lon="7.16362">
        <ele>359.6</ele>
        <time>2023-11-12T16:56:03Z</time>
      </trkpt>
      <trkpt lat="48.7012" lon="7.16332">
        <ele>359.3</ele>
        <time>2023-11-12T16:56:09Z</time>
      </trkpt>
      <trkpt lat="48.70126" lon="7.16302">
        <ele>358.8</ele>
        <time>2023-11-12T16:56:15Z</time>
      </trkpt>
      <trkpt lat="48.70133" lon="7.16274">
        <ele>358.1</ele>
        <time>2023-11-12T16:56:21Z</time>
      </trkpt>
      <trkpt lat="48.70142" lon="7.1625">
        <ele>357.6</ele>
        <time>2023-11-12T16:56:27Z</time>
      </trkpt>
      <trkpt lat="48.70154" lon="7.16228">
        <ele>356.9</ele>
        <time>2023-11-12T16:56:33Z</time>
      </trkpt>
      <trkpt lat="48.70166" lon="7.16204">
        <ele>355.8</ele>
        <time>2023-11-12T16:56:39Z</time>
      </trkpt>
      <trkpt lat="48.70176" lon="7.16178">
        <ele>355.3</ele>
        <time>2023-11-12T16:56:45Z</time>
      </trkpt>
      <trkpt lat="48.70185" lon="7.16151">
        <ele>354.6</ele>
        <time>2023-11-12T16:56:52Z</time>
      </trkpt>
      <trkpt lat="48.70195" lon="7.16126">
        <ele>353.9</ele>
        <time>2023-11-12T16:56:59Z</time>
      </trkpt>
      <trkpt lat="48.70205" lon="7.161">
        <ele>353.6</ele>
        <time>2023-11-12T16:57:05Z</time>
      </trkpt>
      <trkpt lat="48.70215" lon="7.16075">
        <ele>353.3</ele>
        <time>2023-11-12T16:57:11Z</time>
      </trkpt>
      <trkpt lat="48.70224" lon="7.16051">
        <ele>352.9</ele>
        <time>2023-11-12T16:57:17Z</time>
      </trkpt>
      <trkpt lat="48.70239" lon="7.16037">
        <ele>352</ele>
        <time>2023-11-12T16:57:23Z</time>
      </trkpt>
      <trkpt lat="48.70257" lon="7.16035">
        <ele>351</ele>
        <time>2023-11-12T16:57:29Z</time>
      </trkpt>
      <trkpt lat="48.70276" lon="7.16033">
        <ele>349.9</ele>
        <time>2023-11-12T16:57:35Z</time>
      </trkpt>
      <trkpt lat="48.70295" lon="7.1603">
        <ele>348.9</ele>
        <time>2023-11-12T16:57:41Z</time>
      </trkpt>
      <trkpt lat="48.70314" lon="7.16031">
        <ele>347.8</ele>
        <time>2023-11-12T16:57:47Z</time>
      </trkpt>
      <trkpt lat="48.70333" lon="7.16033">
        <ele>346.5</ele>
        <time>2023-11-12T16:57:53Z</time>
      </trkpt>
      <trkpt lat="48.70351" lon="7.16033">
        <ele>345.3</ele>
        <time>2023-11-12T16:57:59Z</time>
      </trkpt>
      <trkpt lat="48.70369" lon="7.16034">
        <ele>344</ele>
        <time>2023-11-12T16:58:05Z</time>
      </trkpt>
      <trkpt lat="48.70388" lon="7.16036">
        <ele>342.8</ele>
        <time>2023-11-12T16:58:11Z</time>
      </trkpt>
      <trkpt lat="48.70408" lon="7.1604">
        <ele>341.6</ele>
        <time>2023-11-12T16:58:17Z</time>
      </trkpt>
      <trkpt lat="48.70428" lon="7.16045">
        <ele>340.6</ele>
        <time>2023-11-12T16:58:23Z</time>
      </trkpt>
      <trkpt lat="48.70447" lon="7.16052">
        <ele>339.7</ele>
        <time>2023-11-12T16:58:29Z</time>
      </trkpt>
      <trkpt lat="48.70465" lon="7.16061">
        <ele>339.2</ele>
        <time>2023-11-12T16:58:35Z</time>
      </trkpt>
      <trkpt lat="48.70484" lon="7.16069">
        <ele>338.8</ele>
        <time>2023-11-12T16:58:41Z</time>
      </trkpt>
      <trkpt lat="48.70503" lon="7.16079">
        <ele>338.7</ele>
        <time>2023-11-12T16:58:47Z</time>
      </trkpt>
      <trkpt lat="48.70521" lon="7.16089">
        <ele>338.7</ele>
        <time>2023-11-12T16:58:54Z</time>
      </trkpt>
      <trkpt lat="48.7054" lon="7.16094">
        <ele>338.6</ele>
        <time>2023-11-12T16:59:01Z</time>
      </trkpt>
      <trkpt lat="48.70558" lon="7.161">
        <ele>338.2</ele>
        <time>2023-11-12T16:59:07Z</time>
      </trkpt>
      <trkpt lat="48.70578" lon="7.16103">
        <ele>337.6</ele>
        <time>2023-11-12T16:59:14Z</time>
      </trkpt>
      <trkpt lat="48.70596" lon="7.161">
        <ele>336.8</ele>
        <time>2023-11-12T16:59:20Z</time>
      </trkpt>
      <trkpt lat="48.70614" lon="7.16098">
        <ele>336</ele>
        <time>2023-11-12T16:59:26Z</time>
      </trkpt>
      <trkpt lat="48.70633" lon="7.16097">
        <ele>335</ele>
        <time>2023-11-12T16:59:32Z</time>
      </trkpt>
      <trkpt lat="48.70654" lon="7.16096">
        <ele>333.9</ele>
        <time>2023-11-12T16:59:39Z</time>
      </trkpt>
      <trkpt lat="48.70672" lon="7.16098">
        <ele>332.9</ele>
        <time>2023-11-12T16:59:45Z</time>
      </trkpt>
      <trkpt lat="48.70691" lon="7.16099">
        <ele>331.9</ele>
        <time>2023-11-12T16:59:51Z</time>
      </trkpt>
      <trkpt lat="48.70709" lon="7.16098">
        <ele>330.9</ele>
        <time>2023-11-12T16:59:57Z</time>
      </trkpt>
      <trkpt lat="48.70727" lon="7.16098">
        <ele>330</ele>
        <time>2023-11-12T17:00:03Z</time>
      </trkpt>
      <trkpt lat="48.70746" lon="7.161">
        <ele>329.1</ele>
        <time>2023-11-12T17:00:09Z</time>
      </trkpt>
      <trkpt lat="48.70765" lon="7.16102">
        <ele>328.2</ele>
        <time>2023-11-12T17:00:15Z</time>
      </trkpt>
      <trkpt lat="48.70784" lon="7.16104">
        <ele>327.3</ele>
        <time>2023-11-12T17:00:21Z</time>
      </trkpt>
      <trkpt lat="48.70803" lon="7.16106">
        <ele>326.4</ele>
        <time>2023-11-12T17:00:27Z</time>
      </trkpt>
      <trkpt lat="48.70823" lon="7.1611">
        <ele>325.4</ele>
        <time>2023-11-12T17:00:33Z</time>
      </trkpt>
      <trkpt lat="48.70844" lon="7.16115">
        <ele>324.6</ele>
        <time>2023-11-12T17:00:40Z</time>
      </trkpt>
      <trkpt lat="48.70863" lon="7.1612">
        <ele>323.8</ele>
        <time>2023-11-12T17:00:46Z</time>
      </trkpt>
      <trkpt lat="48.70881" lon="7.16125">
        <ele>323.1</ele>
        <time>2023-11-12T17:00:52Z</time>
      </trkpt>
      <trkpt lat="48.70901" lon="7.16131">
        <ele>322.4</ele>
        <time>2023-11-12T17:00:59Z</time>
      </trkpt>
      <trkpt lat="48.70918" lon="7.16136">
        <ele>321.7</ele>
        <time>2023-11-12T17:01:05Z</time>
      </trkpt>
      <trkpt lat="48.70938" lon="7.16141">
        <ele>321</ele>
        <time>2023-11-12T17:01:11Z</time>
      </trkpt>
      <trkpt lat="48.70957" lon="7.16151">
        <ele>320.3</ele>
        <time>2023-11-12T17:01:17Z</time>
      </trkpt>
      <trkpt lat="48.70974" lon="7.16159">
        <ele>319.7</ele>
        <time>2023-11-12T17:01:23Z</time>
      </trkpt>
      <trkpt lat="48.70994" lon="7.16164">
        <ele>319.1</ele>
        <time>2023-11-12T17:01:29Z</time>
      </trkpt>
      <trkpt lat="48.71013" lon="7.1617">
        <ele>318.8</ele>
        <time>2023-11-12T17:01:35Z</time>
      </trkpt>
      <trkpt lat="48.71033" lon="7.16175">
        <ele>318.6</ele>
        <time>2023-11-12T17:01:42Z</time>
      </trkpt>
      <trkpt lat="48.71051" lon="7.16181">
        <ele>318.5</ele>
        <time>2023-11-12T17:01:48Z</time>
      </trkpt>
      <trkpt lat="48.71069" lon="7.16191">
        <ele>318.4</ele>
        <time>2023-11-12T17:01:54Z</time>
      </trkpt>
      <trkpt lat="48.71086" lon="7.16204">
        <ele>318.3</ele>
        <time>2023-11-12T17:02:00Z</time>
      </trkpt>
      <trkpt lat="48.71102" lon="7.16222">
        <ele>318.1</ele>
        <time>2023-11-12T17:02:06Z</time>
      </trkpt>
      <trkpt lat="48.71117" lon="7.16242">
        <ele>318</ele>
        <time>2023-11-12T17:02:12Z</time>
      </trkpt>
      <trkpt lat="48.71132" lon="7.16262">
        <ele>317.8</ele>
        <time>2023-11-12T17:02:18Z</time>
      </trkpt>
      <trkpt lat="48.71149" lon="7.16278">
        <ele>317.6</ele>
        <time>2023-11-12T17:02:25Z</time>
      </trkpt>
      <trkpt lat="48.71152" lon="7.16305">
        <ele>317.2</ele>
        <time>2023-11-12T17:02:32Z</time>
      </trkpt>
      <trkpt lat="48.71151" lon="7.16308">
        <ele>317.2</ele>
        <time>2023-11-12T17:02:33Z</time>
      </trkpt>
    </trkseg>
  </trk>
</gpx>